Bezoek ook deze websites:

Template documentation
and downloads

And another site



METAR rapporten vliegvelden

   
EHVK - Volkel Rnlafb, Netherlands
Afstand tot: ZW 18 km
Gewijzigd: 18-05-2021 13:25
Bewolking  
Bewolking  
   Wind: NNW 14.8 km/h
Wind: NNW 14.8 km/h
Temperatuur: 13°C
Dauwpunt: 8°C
Vochtigheid: 72%
Barometer: 1012 hPa
Bewolking: Bewolking
Zicht: meer dan 10 km
Bewolking: Grotendeels bewolkt 2600 ft,
Bewolking 3200 ft
EHVK 181125Z AUTO 33008KT 280V080 9999 BKN026 OVC032 13/08 Q1012 BLU TEMPO 29011G21KT 4500 SHRA FEW015 SCT020CB BKN022
EDLV - Niederrhein, Germany
Afstand tot: ZO 25 km
Gewijzigd: 18-05-2021 13:20
Light Showers, Regen, Grotendeels bewolkt  
Light Showers, Regen, Grotendeels bewolkt  
   Wind: Westen 13 km/h
Wind: Westen 13 km/h
Temperatuur: 14°C
Dauwpunt: 8°C
Vochtigheid: 67%
Barometer: 1012 hPa
Bewolking: Grotendeels bewolkt
Zicht: meer dan 10 km
Bewolking: Grotendeels bewolkt 4200 ft
EDLV 181120Z 26007KT 220V310 9999 -SHRA BKN042TCU 14/08 Q1012
EHDL - Deelen Rnlafb, Netherlands
Afstand tot: N 35 km
Gewijzigd: 18-05-2021 13:25
Bewolking  
Bewolking  
   Wind: varieert 5.6 km/h
Wind: varieert 5.6 km/h
Temperatuur: 14°C
Dauwpunt: 8°C
Vochtigheid: 67%
Barometer: 1012 hPa
Bewolking: Bewolking
Zicht: meer dan 10 km
Bewolking: Licht bewolkt 2400 ft,
Gedeeltelijk bewolkt 9200 ft,
Bewolking 14000 ft
EHDL 181125Z AUTO VRB03KT 9999 FEW024CB SCT092 OVC140 14/08 Q1012 BLU
EHEH - Eindhoven Rnlafb, Netherlands
Afstand tot: ZW 48 km
Gewijzigd: 18-05-2021 13:15
Licht bewolkt  
Licht bewolkt  
   Wind: Westen 11.1 km/h
Wind: Westen 11.1 km/h
Temperatuur: 14°C
Dauwpunt: 9°C
Vochtigheid: 72%
Barometer: 1012 hPa
Bewolking: Licht bewolkt
Zicht: meer dan 10 km
Bewolking: Licht bewolkt 15000 ft
EHEH 181115Z AUTO 27006KT 190V350 9999 FEW150 14/09 Q1012 BLU TEMPO 29008G18KT 4500 SHRA FEW015 SCT020CB BKN022
EHGR - Gilze-Rijen Rnla, Netherlands
Afstand tot: WZW 70 km
Gewijzigd: 18-05-2021 13:25
Grotendeels bewolkt  
Grotendeels bewolkt  
   Wind: WNW 20.4 km/h
Wind: WNW 20.4 km/h
Temperatuur: 14°C
Dauwpunt: 8°C
Vochtigheid: 67%
Barometer: 1012 hPa
Bewolking: Grotendeels bewolkt
Zicht: meer dan 10 km
Bewolking: Gedeeltelijk bewolkt 3000 ft,
Grotendeels bewolkt 3600 ft,
Grotendeels bewolkt 5200 ft
EHGR 181125Z AUTO 29011KT 270V350 9999 SCT030 BKN036 BKN052 14/08 Q1012 BLU TEMPO 29010G20KT 4000 SHRA FEW010 SCT018CB BKN020
EBBL - Kleine-Brogel(Ba, Belgium
Afstand tot: ZZW 71 km
Gewijzigd: 18-05-2021 12:55
Grotendeels bewolkt  
Grotendeels bewolkt  
   Wind: WZW 18.5 km/h
Wind: WZW 18.5 km/h
Temperatuur: 15°C
Dauwpunt: 8°C
Vochtigheid: 63%
Barometer: 1012 hPa
Bewolking: Grotendeels bewolkt
Zicht: meer dan 10 km
Bewolking: Licht bewolkt 3000 ft,
Grotendeels bewolkt 6700 ft
EBBL 181055Z 25010KT 9999 FEW030 BKN067 15/08 Q1012 BLU BLU TEMPO WHT

Script ontwikkeld door  Saratoga-weather.org Aangepast voor de template door  Weerstation Leuven

U vindt ons ook hier:

Het Weer Aktueel

UK Metoffice

WeatherCloud

Weather Underground

AWEKAS

HAMweather, WeatherForYou, PWS Weather

Apparatuur in gebruik:

Weerstation
Davis Vantage Vue

Weerprogramma
Meteobridge

Davis Vantage Vue

Meteobridge